createdAt,value
2023-04-09T00:00:11.278Z,6214.00
2023-04-09T00:01:11.431Z,6328.00
2023-04-09T00:02:11.607Z,6379.00
2023-04-09T00:03:11.776Z,6447.00
2023-04-09T00:04:11.908Z,6615.00
2023-04-09T00:05:12.075Z,6912.00
2023-04-09T00:06:12.201Z,6856.00
2023-04-09T00:07:12.336Z,6812.00
2023-04-09T00:08:12.497Z,6843.00
2023-04-09T00:09:12.678Z,6898.00
2023-04-09T00:10:12.814Z,6899.00
2023-04-09T00:11:12.965Z,6882.00
2023-04-09T00:12:13.115Z,6753.00
2023-04-09T00:13:13.261Z,6669.00
2023-04-09T00:14:13.425Z,6623.00
2023-04-09T00:15:20.912Z,6610.00
2023-04-09T00:16:14.747Z,6576.00
2023-04-09T00:17:13.745Z,6514.00
2023-04-09T00:18:13.820Z,6556.00
2023-04-09T00:19:13.909Z,6607.00
2023-04-09T00:20:13.995Z,6669.00
2023-04-09T00:21:14.077Z,6717.00
2023-04-09T00:22:14.159Z,6863.00
2023-04-09T00:23:14.239Z,6905.00
2023-04-09T00:24:14.346Z,6868.00
2023-04-09T00:25:14.484Z,6940.00
2023-04-09T00:26:14.625Z,7062.00
2023-04-09T00:27:14.774Z,7111.00
2023-04-09T00:28:14.911Z,7109.00
2023-04-09T00:29:15.070Z,7186.00
2023-04-09T00:30:15.214Z,7186.00
2023-04-09T00:31:15.376Z,7125.00
2023-04-09T00:32:15.513Z,7146.00
2023-04-09T00:33:15.657Z,7161.00
2023-04-09T00:34:15.796Z,7195.00
2023-04-09T00:35:15.932Z,7112.00
2023-04-09T00:36:16.121Z,6995.00
2023-04-09T00:37:16.205Z,6921.00
2023-04-09T00:38:16.362Z,6892.00
2023-04-09T00:39:16.483Z,6812.00
2023-04-09T00:40:16.622Z,6826.00
2023-04-09T00:41:16.773Z,6671.00
2023-04-09T00:42:16.915Z,6502.00
2023-04-09T00:43:17.075Z,6457.00
2023-04-09T00:44:17.209Z,6464.00
2023-04-09T00:45:17.367Z,6523.00
2023-04-09T00:46:17.517Z,6562.00
2023-04-09T00:47:17.656Z,6657.00
2023-04-09T00:48:17.803Z,6695.00
2023-04-09T00:49:17.983Z,6755.00
2023-04-09T00:50:18.083Z,6898.00
2023-04-09T00:51:18.247Z,6962.00
2023-04-09T00:52:18.381Z,6982.00
2023-04-09T00:53:18.532Z,6945.00
2023-04-09T00:54:18.696Z,6830.00
2023-04-09T00:55:18.839Z,6711.00
2023-04-09T00:56:18.993Z,6711.00
2023-04-09T00:57:19.148Z,6725.00
2023-04-09T00:58:19.283Z,6745.00
2023-04-09T00:59:19.428Z,6853.00
2023-04-09T01:00:19.581Z,6863.00
2023-04-09T01:01:19.777Z,6858.00
2023-04-09T01:02:19.943Z,6894.00
2023-04-09T01:03:20.104Z,7018.00
2023-04-09T01:04:20.178Z,7158.00
2023-04-09T01:05:20.306Z,7231.00
2023-04-09T01:06:20.495Z,7211.00
2023-04-09T01:07:20.612Z,7178.00
2023-04-09T01:08:21.777Z,7192.00
2023-04-09T01:09:20.917Z,7133.00
2023-04-09T01:10:21.102Z,7158.00
2023-04-09T01:11:21.223Z,7156.00
2023-04-09T01:12:21.386Z,7010.00
2023-04-09T01:13:21.522Z,6883.00
2023-04-09T01:14:21.681Z,6860.00
2023-04-09T01:15:21.827Z,6887.00
2023-04-09T01:16:22.009Z,6954.00
2023-04-09T01:17:22.146Z,7005.00
2023-04-09T01:18:22.279Z,7028.00
2023-04-09T01:19:22.439Z,6892.00
2023-04-09T01:20:22.597Z,6839.00
2023-04-09T01:21:22.750Z,6822.00
2023-04-09T01:22:22.909Z,6782.00
2023-04-09T01:23:23.070Z,6749.00
2023-04-09T01:24:23.229Z,6628.00
2023-04-09T01:25:23.408Z,6519.00
2023-04-09T01:26:23.565Z,6575.00
2023-04-09T01:27:23.693Z,6607.00
2023-04-09T01:28:23.866Z,6681.00
2023-04-09T01:29:24.029Z,6725.00
2023-04-09T01:30:24.182Z,6710.00
2023-04-09T01:31:24.400Z,6706.00
2023-04-09T01:32:24.490Z,6722.00
2023-04-09T01:33:24.631Z,6515.00
2023-04-09T01:34:24.789Z,6467.00
2023-04-09T01:35:24.942Z,6544.00
2023-04-09T01:36:25.075Z,6638.00
2023-04-09T01:37:25.234Z,6644.00
2023-04-09T01:38:25.388Z,6619.00
2023-04-09T01:39:25.540Z,6430.00
2023-04-09T01:40:25.679Z,6340.00
2023-04-09T01:41:25.831Z,6240.00
2023-04-09T01:42:25.984Z,6080.00
2023-04-09T01:43:26.151Z,5989.00
2023-04-09T01:44:26.276Z,5996.00
2023-04-09T01:45:26.584Z,6085.00
2023-04-09T01:46:26.599Z,6165.00
2023-04-09T01:47:26.744Z,6052.00
2023-04-09T01:48:26.897Z,5948.00
2023-04-09T01:49:27.051Z,5925.00
2023-04-09T01:50:27.192Z,5868.00
2023-04-09T01:51:27.399Z,5777.00
2023-04-09T01:52:27.502Z,5706.00
2023-04-09T01:53:27.667Z,5695.00
2023-04-09T01:54:27.835Z,5739.00
2023-04-09T01:55:28.002Z,5745.00
2023-04-09T01:56:28.144Z,5716.00
2023-04-09T01:57:28.295Z,5817.00
2023-04-09T01:58:28.448Z,5839.00
2023-04-09T01:59:28.609Z,5734.00
2023-04-09T02:00:28.757Z,5801.00
2023-04-09T02:01:28.927Z,5815.00
2023-04-09T02:02:29.332Z,5876.00
2023-04-09T02:03:29.298Z,5885.00
2023-04-09T02:04:29.399Z,5910.00
2023-04-09T02:05:29.563Z,5928.00
2023-04-09T02:06:29.725Z,6007.00
2023-04-09T02:07:29.887Z,6050.00
2023-04-09T02:08:30.047Z,6050.00
2023-04-09T02:09:30.212Z,5974.00
2023-04-09T02:10:30.364Z,5855.00
2023-04-09T02:11:30.548Z,5795.00
2023-04-09T02:12:30.703Z,5755.00
2023-04-09T02:13:30.868Z,5660.00
2023-04-09T02:14:31.050Z,5771.00
2023-04-09T02:15:31.263Z,5904.00
2023-04-09T02:16:31.357Z,5977.00
2023-04-09T02:17:31.598Z,6060.00
2023-04-09T02:18:31.777Z,6122.00
2023-04-09T02:19:31.850Z,5977.00
2023-04-09T02:20:32.023Z,5816.00
2023-04-09T02:21:32.172Z,5742.00
2023-04-09T02:22:32.332Z,5728.00
2023-04-09T02:23:32.486Z,5788.00
2023-04-09T02:24:32.633Z,5883.00
2023-04-09T02:25:32.780Z,5976.00
2023-04-09T02:26:32.935Z,6036.00
2023-04-09T02:27:33.092Z,6041.00
2023-04-09T02:28:33.242Z,6022.00
2023-04-09T02:29:33.383Z,6022.00
2023-04-09T02:30:33.528Z,6020.00
2023-04-09T02:31:33.734Z,5803.00
2023-04-09T02:32:33.848Z,5570.00
2023-04-09T02:33:33.998Z,5558.00
2023-04-09T02:34:34.157Z,5642.00
2023-04-09T02:35:34.364Z,5654.00
2023-04-09T02:36:34.472Z,5676.00
2023-04-09T02:37:34.620Z,5624.00
2023-04-09T02:38:34.757Z,5565.00
2023-04-09T02:39:34.931Z,5611.00
2023-04-09T02:40:35.091Z,5621.00
2023-04-09T02:41:35.249Z,5510.00
2023-04-09T02:42:35.409Z,5465.00
2023-04-09T02:43:35.556Z,5456.00
2023-04-09T02:44:35.709Z,5476.00
2023-04-09T02:45:35.871Z,5428.00
2023-04-09T02:46:36.066Z,5387.00
2023-04-09T02:47:36.200Z,5406.00
2023-04-09T02:48:36.334Z,5519.00
2023-04-09T02:49:36.490Z,5471.00
2023-04-09T02:50:36.666Z,5473.00
2023-04-09T02:51:36.801Z,5520.00
2023-04-09T02:52:36.921Z,5440.00
2023-04-09T02:53:37.037Z,5480.00
2023-04-09T02:54:37.189Z,5452.00
2023-04-09T02:55:37.351Z,5478.00
2023-04-09T02:56:37.516Z,5531.00
2023-04-09T02:57:37.635Z,5591.00
2023-04-09T02:58:37.777Z,5565.00
2023-04-09T02:59:37.914Z,5651.00
2023-04-09T03:00:38.059Z,5661.00
2023-04-09T03:01:38.327Z,5643.00
2023-04-09T03:02:38.557Z,5604.00
2023-04-09T03:03:38.559Z,5569.00
2023-04-09T03:04:38.656Z,5514.00
2023-04-09T03:05:38.827Z,5556.00
2023-04-09T03:06:38.960Z,5682.00
2023-04-09T03:07:39.118Z,5668.00
2023-04-09T03:08:39.288Z,5641.00
2023-04-09T03:09:39.392Z,5534.00
2023-04-09T03:10:39.519Z,5530.00
2023-04-09T03:11:39.663Z,5541.00
2023-04-09T03:12:39.775Z,5600.00
2023-04-09T03:13:39.901Z,5628.00
2023-04-09T03:14:40.054Z,5705.00
2023-04-09T03:15:40.257Z,5584.00
2023-04-09T03:16:40.351Z,5612.00
2023-04-09T03:17:40.537Z,5645.00
2023-04-09T03:18:40.681Z,5654.00
2023-04-09T03:19:40.821Z,5606.00
2023-04-09T03:20:40.972Z,5594.00
2023-04-09T03:21:41.125Z,5687.00
2023-04-09T03:22:41.287Z,5762.00
2023-04-09T03:23:41.430Z,5847.00
2023-04-09T03:24:41.573Z,5883.00
2023-04-09T03:25:41.733Z,5896.00
2023-04-09T03:26:41.883Z,5915.00
2023-04-09T03:27:42.074Z,5917.00
2023-04-09T03:28:42.153Z,5953.00
2023-04-09T03:29:42.316Z,5789.00
2023-04-09T03:30:42.471Z,5734.00
2023-04-09T03:31:42.622Z,5869.00
2023-04-09T03:32:42.754Z,5874.00
2023-04-09T03:33:42.876Z,5860.00
2023-04-09T03:34:43.018Z,5870.00
2023-04-09T03:35:43.170Z,5913.00
2023-04-09T03:36:43.262Z,5968.00
2023-04-09T03:37:43.370Z,6013.00
2023-04-09T03:38:43.482Z,5992.00
2023-04-09T03:39:43.627Z,5984.00
2023-04-09T03:40:43.733Z,5883.00
2023-04-09T03:41:43.839Z,5933.00
2023-04-09T03:42:43.962Z,5960.00
2023-04-09T03:43:44.073Z,5996.00
2023-04-09T03:44:44.185Z,6202.00
2023-04-09T03:45:44.290Z,6145.00
2023-04-09T03:46:44.414Z,6120.00
2023-04-09T03:47:44.538Z,6115.00
2023-04-09T03:48:44.602Z,6153.00
2023-04-09T03:49:44.737Z,6221.00
2023-04-09T03:50:44.878Z,6160.00
2023-04-09T03:51:45.050Z,6170.00
2023-04-09T03:52:45.170Z,6196.00
2023-04-09T03:53:45.292Z,6176.00
2023-04-09T03:54:45.400Z,6120.00
2023-04-09T03:55:45.508Z,6058.00
2023-04-09T03:56:45.617Z,5925.00
2023-04-09T03:57:45.727Z,5878.00
2023-04-09T03:58:45.833Z,5822.00
2023-04-09T03:59:46.030Z,5814.00
2023-04-09T04:00:46.109Z,5751.00
2023-04-09T04:01:46.364Z,5835.00
2023-04-09T04:02:46.435Z,5915.00
2023-04-09T04:03:46.516Z,5920.00
2023-04-09T04:04:46.619Z,5918.00
2023-04-09T04:05:46.679Z,5921.00
2023-04-09T04:06:46.806Z,5930.00
2023-04-09T04:07:46.913Z,5946.00
2023-04-09T04:08:47.078Z,5996.00
2023-04-09T04:09:47.185Z,6021.00
2023-04-09T04:10:47.298Z,6102.00
2023-04-09T04:11:47.426Z,6127.00
2023-04-09T04:12:47.626Z,6177.00
2023-04-09T04:13:47.648Z,6212.00
2023-04-09T04:14:47.802Z,6241.00
2023-04-09T04:15:47.913Z,6351.00
2023-04-09T04:16:48.012Z,6393.00
2023-04-09T04:17:48.209Z,6353.00
2023-04-09T04:18:48.253Z,6231.00
2023-04-09T04:19:48.376Z,6098.00
2023-04-09T04:20:48.477Z,6109.00
2023-04-09T04:21:48.626Z,6104.00
2023-04-09T04:22:48.758Z,6198.00
2023-04-09T04:23:48.817Z,6212.00
2023-04-09T04:24:48.989Z,6158.00
2023-04-09T04:25:49.101Z,6078.00
2023-04-09T04:26:49.220Z,6022.00
2023-04-09T04:27:49.316Z,5842.00
2023-04-09T04:28:49.546Z,5821.00
2023-04-09T04:29:49.568Z,5865.00
2023-04-09T04:30:49.675Z,5861.00
2023-04-09T04:31:49.818Z,5789.00
2023-04-09T04:32:49.948Z,5647.00
2023-04-09T04:33:50.017Z,5579.00
2023-04-09T04:34:50.227Z,5564.00
2023-04-09T04:35:50.429Z,5524.00
2023-04-09T04:36:50.534Z,5542.00
2023-04-09T04:37:50.655Z,5542.00
2023-04-09T04:38:50.978Z,5553.00
2023-04-09T04:39:50.893Z,5525.00
2023-04-09T04:40:51.098Z,5526.00
2023-04-09T04:41:51.209Z,5488.00
2023-04-09T04:42:51.300Z,5534.00
2023-04-09T04:43:51.433Z,5586.00
2023-04-09T04:44:51.534Z,5593.00
2023-04-09T04:45:53.568Z,5615.00
2023-04-09T04:46:51.738Z,5583.00
2023-04-09T04:47:51.845Z,5610.00
2023-04-09T04:48:52.092Z,5652.00
2023-04-09T04:49:52.084Z,5591.00
2023-04-09T04:50:52.284Z,5465.00
2023-04-09T04:51:52.393Z,5325.00
2023-04-09T04:52:52.488Z,5287.00
2023-04-09T04:53:52.596Z,5335.00
2023-04-09T04:54:52.705Z,5335.00
2023-04-09T04:55:52.807Z,5405.00
2023-04-09T04:56:52.998Z,5428.00
2023-04-09T04:57:53.112Z,5372.00
2023-04-09T04:58:53.424Z,5455.00
2023-04-09T04:59:53.414Z,5475.00
2023-04-09T05:00:53.608Z,5484.00
2023-04-09T05:01:53.759Z,5486.00
2023-04-09T05:02:53.913Z,5610.00
2023-04-09T05:03:54.034Z,5748.00
2023-04-09T05:04:54.134Z,5905.00
2023-04-09T05:05:54.251Z,5873.00
2023-04-09T05:06:54.419Z,5871.00
2023-04-09T05:07:54.579Z,5920.00
2023-04-09T05:08:54.835Z,5917.00
2023-04-09T05:09:54.783Z,5932.00
2023-04-09T05:10:54.943Z,5941.00
2023-04-09T05:11:55.137Z,5960.00
2023-04-09T05:12:55.348Z,6012.00
2023-04-09T05:13:55.563Z,6017.00
2023-04-09T05:14:55.666Z,6058.00
2023-04-09T05:15:55.803Z,6082.00
2023-04-09T05:16:56.003Z,6106.00
2023-04-09T05:17:56.087Z,6021.00
2023-04-09T05:18:56.233Z,6016.00
2023-04-09T05:19:56.389Z,5888.00
2023-04-09T05:20:56.532Z,5767.00
2023-04-09T05:21:56.673Z,5822.00
2023-04-09T05:22:56.822Z,5892.00
2023-04-09T05:23:56.982Z,5802.00
2023-04-09T05:24:57.144Z,5694.00
2023-04-09T05:25:57.277Z,5616.00
2023-04-09T05:26:57.417Z,5564.00
2023-04-09T05:27:57.559Z,5635.00
2023-04-09T05:28:57.729Z,5631.00
2023-04-09T05:30:00.346Z,5606.00
2023-04-09T05:30:57.971Z,5584.00
2023-04-09T05:31:58.063Z,5516.00
2023-04-09T05:32:58.200Z,5504.00
2023-04-09T05:33:58.271Z,5504.00
2023-04-09T05:34:58.387Z,5486.00
2023-04-09T05:35:58.519Z,5411.00
2023-04-09T05:36:58.582Z,5356.00
2023-04-09T05:37:58.683Z,5334.00
2023-04-09T05:38:58.783Z,5359.00
2023-04-09T05:39:58.882Z,5411.00
2023-04-09T05:40:58.992Z,5350.00
2023-04-09T05:41:59.074Z,5360.00
2023-04-09T05:42:59.187Z,5287.00
2023-04-09T05:44:00.595Z,5230.00
2023-04-09T05:44:59.419Z,5223.00
2023-04-09T05:45:59.540Z,5233.00
2023-04-09T05:46:59.627Z,5207.00
2023-04-09T05:47:59.744Z,5225.00
2023-04-09T05:48:59.851Z,5230.00
2023-04-09T05:49:59.945Z,5303.00
2023-04-09T05:51:00.991Z,5379.00
2023-04-09T05:52:00.155Z,5469.00
2023-04-09T05:53:00.261Z,5540.00
2023-04-09T05:54:00.369Z,5643.00
2023-04-09T05:55:00.471Z,5693.00
2023-04-09T05:56:00.562Z,5669.00
2023-04-09T05:57:00.676Z,5650.00
2023-04-09T05:58:00.768Z,5585.00
2023-04-09T05:59:00.866Z,5483.00
2023-04-09T06:00:01.188Z,5445.00
2023-04-09T06:01:01.113Z,5462.00
2023-04-09T06:02:01.203Z,5502.00
2023-04-09T06:03:01.372Z,5501.00
2023-04-09T06:04:01.745Z,5444.00
2023-04-09T06:05:01.603Z,5448.00
2023-04-09T06:06:01.650Z,5410.00
2023-04-09T06:07:01.751Z,5397.00
2023-04-09T06:08:01.859Z,5413.00
2023-04-09T06:10:02.083Z,5497.00
2023-04-09T06:11:02.202Z,5403.00
2023-04-09T06:12:02.321Z,5440.00
2023-04-09T06:13:02.402Z,5412.00
2023-04-09T06:14:02.531Z,5443.00
2023-04-09T06:15:02.662Z,5400.00
2023-04-09T06:16:02.829Z,5316.00
2023-04-09T06:17:02.922Z,5272.00
2023-04-09T06:18:03.075Z,5243.00
2023-04-09T06:19:03.160Z,5264.00
2023-04-09T06:20:03.273Z,5315.00
2023-04-09T06:21:03.469Z,5317.00
2023-04-09T06:22:03.640Z,5360.00
2023-04-09T06:23:03.763Z,5396.00
2023-04-09T06:24:03.878Z,5391.00
2023-04-09T06:25:03.990Z,5383.00
2023-04-09T06:26:04.091Z,5415.00
2023-04-09T06:27:04.230Z,5431.00
2023-04-09T06:28:04.363Z,5429.00
2023-04-09T06:29:04.495Z,5503.00
2023-04-09T06:30:04.641Z,5625.00
2023-04-09T06:31:04.836Z,5668.00
2023-04-09T06:32:04.924Z,5666.00
2023-04-09T06:33:05.149Z,5638.00
2023-04-09T06:34:05.148Z,5636.00
2023-04-09T06:35:05.278Z,5613.00
2023-04-09T06:36:05.436Z,5552.00
2023-04-09T06:37:05.500Z,5502.00
2023-04-09T06:38:05.620Z,5528.00
2023-04-09T06:39:05.760Z,5462.00
2023-04-09T06:40:05.899Z,5400.00
2023-04-09T06:41:06.062Z,5373.00
2023-04-09T06:42:06.208Z,5331.00
2023-04-09T06:43:06.366Z,5230.00
2023-04-09T06:44:06.521Z,5111.00
2023-04-09T06:45:07.314Z,5110.00
2023-04-09T06:46:06.909Z,5092.00
2023-04-09T06:47:06.990Z,5052.00
2023-04-09T06:48:07.193Z,5024.00
2023-04-09T06:49:07.294Z,5013.00
2023-04-09T06:50:07.431Z,5018.00
2023-04-09T06:51:07.549Z,4952.00
2023-04-09T06:53:07.796Z,4846.00
2023-04-09T06:54:07.915Z,4846.00
2023-04-09T06:55:08.122Z,4860.00
2023-04-09T06:56:08.316Z,4817.00
2023-04-09T06:57:08.504Z,4835.00
2023-04-09T06:58:08.614Z,4849.00
2023-04-09T06:59:08.722Z,4860.00
2023-04-09T07:00:08.863Z,4894.00
2023-04-09T07:01:09.010Z,4955.00
2023-04-09T07:02:09.265Z,4978.00
2023-04-09T07:03:09.663Z,4965.00
2023-04-09T07:04:09.488Z,4952.00
2023-04-09T07:05:09.505Z,4898.00
2023-04-09T07:06:09.616Z,4962.00
2023-04-09T07:07:09.756Z,4999.00
2023-04-09T07:08:09.909Z,5026.00
2023-04-09T07:09:10.072Z,4962.00
2023-04-09T07:10:10.323Z,4792.00
2023-04-09T07:11:10.330Z,4688.00
2023-04-09T07:12:10.464Z,4630.00
2023-04-09T07:13:10.612Z,4543.00
2023-04-09T07:14:10.702Z,4478.00
2023-04-09T07:15:10.801Z,4382.00
2023-04-09T07:16:10.947Z,4306.00
2023-04-09T07:17:11.086Z,4238.00
2023-04-09T07:18:11.258Z,4247.00
2023-04-09T07:19:11.368Z,4303.00
2023-04-09T07:20:11.438Z,4417.00
2023-04-09T07:21:11.555Z,4540.00
2023-04-09T07:22:11.968Z,4675.00
2023-04-09T07:23:12.076Z,4748.00
2023-04-09T07:24:12.310Z,4835.00
2023-04-09T07:25:12.508Z,4811.00
2023-04-09T07:26:12.724Z,4735.00
2023-04-09T07:27:12.868Z,4722.00
2023-04-09T07:28:12.986Z,4642.00
2023-04-09T07:29:13.101Z,4577.00
2023-04-09T07:30:13.218Z,4516.00
2023-04-09T07:31:13.363Z,4463.00
2023-04-09T07:32:13.486Z,4503.00
2023-04-09T07:33:13.712Z,4491.00
2023-04-09T07:34:13.755Z,4405.00
2023-04-09T07:35:13.909Z,4426.00
2023-04-09T07:36:14.093Z,4384.00
2023-04-09T07:37:14.203Z,4281.00
2023-04-09T07:38:14.335Z,4241.00
2023-04-09T07:39:14.487Z,4238.00
2023-04-09T07:40:14.609Z,4277.00
2023-04-09T07:41:14.744Z,4221.00
2023-04-09T07:42:14.872Z,4013.00
2023-04-09T07:43:14.986Z,3688.00
2023-04-09T07:44:15.138Z,3508.00
2023-04-09T07:45:15.271Z,3446.00
2023-04-09T07:46:15.449Z,3550.00
2023-04-09T07:47:15.582Z,3713.00
2023-04-09T07:48:15.714Z,3760.00
2023-04-09T07:49:15.856Z,3819.00
2023-04-09T07:50:16.013Z,3844.00
2023-04-09T07:51:16.161Z,3853.00
2023-04-09T07:52:16.308Z,3801.00
2023-04-09T07:53:16.447Z,3716.00
2023-04-09T07:54:16.598Z,3674.00
2023-04-09T07:55:17.421Z,3662.00
2023-04-09T07:56:16.859Z,3676.00
2023-04-09T07:57:17.016Z,3723.00
2023-04-09T07:58:17.146Z,3780.00
2023-04-09T07:59:17.290Z,3875.00
2023-04-09T08:00:17.401Z,3989.00
2023-04-09T08:01:17.536Z,3977.00
2023-04-09T08:02:17.775Z,3970.00
2023-04-09T08:03:17.954Z,3829.00
2023-04-09T08:04:18.143Z,3793.00
2023-04-09T08:05:18.240Z,3812.00
2023-04-09T08:06:18.201Z,3693.00
2023-04-09T08:07:18.351Z,3566.00
2023-04-09T08:08:18.502Z,3385.00
2023-04-09T08:09:18.704Z,3162.00
2023-04-09T08:10:18.749Z,3004.00
2023-04-09T08:11:18.892Z,2931.00
2023-04-09T08:12:19.113Z,2788.00
2023-04-09T08:13:19.140Z,2568.00
2023-04-09T08:14:19.283Z,2467.00
2023-04-09T08:15:19.403Z,2444.00
2023-04-09T08:16:19.598Z,2427.00
2023-04-09T08:17:19.655Z,2438.00
2023-04-09T08:18:19.791Z,2461.00
2023-04-09T08:19:19.936Z,2512.00
2023-04-09T08:20:20.060Z,2534.00
2023-04-09T08:21:20.187Z,2610.00
2023-04-09T08:22:20.305Z,2701.00
2023-04-09T08:23:20.451Z,2837.00
2023-04-09T08:24:20.614Z,2797.00
2023-04-09T08:25:20.750Z,2618.00
2023-04-09T08:26:21.837Z,2456.00
2023-04-09T08:27:21.062Z,2430.00
2023-04-09T08:28:21.210Z,2418.00
2023-04-09T08:29:21.368Z,2377.00
2023-04-09T08:30:21.490Z,2329.00
2023-04-09T08:31:21.666Z,2321.00
2023-04-09T08:32:21.827Z,2306.00
2023-04-09T08:33:21.948Z,2296.00
2023-04-09T08:34:22.095Z,2181.00
2023-04-09T08:35:22.244Z,2115.00
2023-04-09T08:36:22.408Z,2026.00
2023-04-09T08:37:22.530Z,1982.00
2023-04-09T08:38:22.720Z,1928.00
2023-04-09T08:39:22.832Z,1844.00
2023-04-09T08:40:22.950Z,1812.00
2023-04-09T08:41:23.094Z,1836.00
2023-04-09T08:42:23.226Z,1921.00
2023-04-09T08:43:24.997Z,1966.00
2023-04-09T08:44:23.430Z,2084.00
2023-04-09T08:45:23.505Z,2001.00
2023-04-09T08:46:23.631Z,1874.00
2023-04-09T08:47:23.731Z,1562.00
2023-04-09T08:48:23.849Z,1515.00
2023-04-09T08:49:23.798Z,1648.00
2023-04-09T08:50:23.873Z,1708.00
2023-04-09T08:51:24.056Z,1690.00
2023-04-09T08:52:24.016Z,1636.00
2023-04-09T08:53:24.097Z,1724.00
2023-04-09T08:54:24.169Z,1613.00
2023-04-09T08:55:24.228Z,1689.00
2023-04-09T08:56:24.290Z,1667.00
2023-04-09T08:57:24.361Z,1551.00
2023-04-09T08:58:24.487Z,1446.00
2023-04-09T08:59:24.539Z,1285.00
2023-04-09T09:00:24.634Z,1183.00
2023-04-09T09:01:24.777Z,1104.00
2023-04-09T09:02:24.840Z,1009.00
2023-04-09T09:03:24.923Z,1094.00
2023-04-09T09:04:24.970Z,1223.00
2023-04-09T09:05:25.018Z,1243.00
2023-04-09T09:06:25.083Z,1335.00
2023-04-09T09:07:25.208Z,1444.00
2023-04-09T09:08:25.216Z,1392.00
2023-04-09T09:09:25.291Z,1175.00
2023-04-09T09:10:25.344Z,1148.00
2023-04-09T09:11:25.404Z,1203.00
2023-04-09T09:12:26.042Z,1209.00
2023-04-09T09:13:25.525Z,1313.00
2023-04-09T09:14:25.578Z,1345.00
2023-04-09T09:15:25.664Z,1335.00
2023-04-09T09:16:25.805Z,1266.00
2023-04-09T09:17:25.798Z,1233.00
2023-04-09T09:18:25.845Z,1218.00
2023-04-09T09:19:25.926Z,1219.00
2023-04-09T09:20:25.997Z,1161.00
2023-04-09T09:21:26.082Z,1132.00
2023-04-09T09:22:26.138Z,1083.00
2023-04-09T09:23:26.217Z,1065.00
2023-04-09T09:24:26.319Z,1025.00
2023-04-09T09:25:26.813Z,980.00
2023-04-09T09:26:26.426Z,1046.00
2023-04-09T09:27:26.485Z,1098.00
2023-04-09T09:28:26.547Z,1142.00
2023-04-09T09:29:26.617Z,1158.00
2023-04-09T09:30:26.700Z,1240.00
2023-04-09T09:31:26.916Z,1345.00
2023-04-09T09:32:26.851Z,1201.00
2023-04-09T09:33:26.953Z,1052.00
2023-04-09T09:34:26.989Z,885.00
2023-04-09T09:35:27.279Z,646.00
2023-04-09T09:36:27.203Z,624.00
2023-04-09T09:37:27.300Z,749.00
2023-04-09T09:38:27.382Z,889.00
2023-04-09T09:39:27.453Z,846.00
2023-04-09T09:40:27.508Z,868.00
2023-04-09T09:41:27.610Z,924.00
2023-04-09T09:42:27.708Z,815.00
2023-04-09T09:43:27.813Z,794.00
2023-04-09T09:44:27.877Z,772.00
2023-04-09T09:45:27.968Z,864.00
2023-04-09T09:46:28.107Z,925.00
2023-04-09T09:47:28.231Z,648.00
2023-04-09T09:48:28.520Z,621.00
2023-04-09T09:49:28.381Z,612.00
2023-04-09T09:50:28.489Z,649.00
2023-04-09T09:51:28.606Z,646.00
2023-04-09T09:52:28.717Z,640.00
2023-04-09T09:53:28.793Z,600.00
2023-04-09T09:54:28.869Z,566.00
2023-04-09T09:55:28.964Z,576.00
2023-04-09T09:56:29.038Z,633.00
2023-04-09T09:57:29.121Z,643.00
2023-04-09T09:58:29.182Z,650.00
2023-04-09T09:59:29.284Z,707.00
2023-04-09T10:00:29.366Z,671.00
2023-04-09T10:01:29.480Z,550.00
2023-04-09T10:02:29.622Z,593.00
2023-04-09T10:03:29.729Z,607.00
2023-04-09T10:04:29.848Z,605.00
2023-04-09T10:05:29.865Z,659.00
2023-04-09T10:06:29.948Z,801.00
2023-04-09T10:07:30.038Z,836.00
2023-04-09T10:08:30.108Z,830.00
2023-04-09T10:09:30.188Z,616.00
2023-04-09T10:10:30.274Z,514.00
2023-04-09T10:11:30.352Z,494.00
2023-04-09T10:12:30.450Z,422.00
2023-04-09T10:13:30.599Z,428.00
2023-04-09T10:14:30.655Z,415.00
2023-04-09T10:15:30.746Z,437.00
2023-04-09T10:16:30.887Z,513.00
2023-04-09T10:17:30.936Z,599.00
2023-04-09T10:18:31.028Z,628.00
2023-04-09T10:19:31.114Z,679.00
2023-04-09T10:20:31.204Z,805.00
2023-04-09T10:21:31.258Z,721.00
2023-04-09T10:22:31.313Z,558.00
2023-04-09T10:23:31.365Z,497.00
2023-04-09T10:24:31.414Z,475.00
2023-04-09T10:25:31.457Z,548.00
2023-04-09T10:26:31.514Z,591.00
2023-04-09T10:27:31.582Z,495.00
2023-04-09T10:28:31.632Z,523.00
2023-04-09T10:29:31.682Z,537.00
2023-04-09T10:30:31.731Z,534.00
2023-04-09T10:31:31.865Z,516.00
2023-04-09T10:32:31.843Z,509.00
2023-04-09T10:33:31.881Z,453.00
2023-04-09T10:34:31.962Z,413.00
2023-04-09T10:35:31.984Z,487.00
2023-04-09T10:36:32.032Z,544.00
2023-04-09T10:37:32.123Z,567.00
2023-04-09T10:38:32.221Z,619.00
2023-04-09T10:39:32.323Z,647.00
2023-04-09T10:40:32.400Z,672.00
2023-04-09T10:41:32.470Z,791.00
2023-04-09T10:42:32.523Z,874.00
2023-04-09T10:43:32.562Z,1004.00
2023-04-09T10:44:32.626Z,981.00
2023-04-09T10:45:32.676Z,957.00
2023-04-09T10:46:32.727Z,859.00
2023-04-09T10:47:32.802Z,899.00
2023-04-09T10:48:32.813Z,1037.00
2023-04-09T10:49:32.900Z,1085.00
2023-04-09T10:50:32.981Z,995.00
2023-04-09T10:51:33.084Z,1018.00
2023-04-09T10:52:33.139Z,911.00
2023-04-09T10:53:33.194Z,716.00
2023-04-09T10:54:33.343Z,608.00
2023-04-09T10:55:33.881Z,609.00
2023-04-09T10:56:33.478Z,661.00
2023-04-09T10:57:33.544Z,627.00
2023-04-09T10:58:33.625Z,659.00
2023-04-09T10:59:33.683Z,724.00
2023-04-09T11:00:33.729Z,825.00
2023-04-09T11:01:33.831Z,670.00
2023-04-09T11:02:33.994Z,613.00
2023-04-09T11:03:33.966Z,565.00
2023-04-09T11:04:34.069Z,528.00
2023-04-09T11:05:34.157Z,607.00
2023-04-09T11:06:34.256Z,544.00
2023-04-09T11:07:34.387Z,524.00
2023-04-09T11:08:34.465Z,515.00
2023-04-09T11:09:34.562Z,498.00
2023-04-09T11:10:34.653Z,526.00
2023-04-09T11:11:34.736Z,569.00
2023-04-09T11:12:34.833Z,574.00
2023-04-09T11:13:34.908Z,545.00
2023-04-09T11:14:34.979Z,535.00
2023-04-09T11:15:35.155Z,560.00
2023-04-09T11:16:35.131Z,568.00
2023-04-09T11:17:35.217Z,533.00
2023-04-09T11:18:35.263Z,517.00
2023-04-09T11:19:35.306Z,496.00
2023-04-09T11:20:35.372Z,488.00
2023-04-09T11:21:35.914Z,474.00
2023-04-09T11:22:35.445Z,435.00
2023-04-09T11:23:35.478Z,505.00
2023-04-09T11:24:35.514Z,536.00
2023-04-09T11:25:35.657Z,494.00
2023-04-09T11:26:35.681Z,510.00
2023-04-09T11:27:35.758Z,563.00
2023-04-09T11:28:35.831Z,599.00
2023-04-09T11:29:35.922Z,593.00
2023-04-09T11:30:36.083Z,575.00
2023-04-09T11:31:36.108Z,535.00
2023-04-09T11:32:36.226Z,527.00
2023-04-09T11:33:36.260Z,532.00
2023-04-09T11:34:36.323Z,540.00
2023-04-09T11:35:36.468Z,499.00
2023-04-09T11:36:36.514Z,515.00
2023-04-09T11:37:36.594Z,570.00
2023-04-09T11:38:36.682Z,509.00
2023-04-09T11:39:36.762Z,503.00
2023-04-09T11:40:36.850Z,548.00
2023-04-09T11:41:36.922Z,645.00
2023-04-09T11:42:36.969Z,651.00
2023-04-09T11:43:37.055Z,689.00
2023-04-09T11:44:37.108Z,622.00
2023-04-09T11:45:37.164Z,574.00
2023-04-09T11:46:37.264Z,529.00
2023-04-09T11:47:37.313Z,540.00
2023-04-09T11:48:37.344Z,563.00
2023-04-09T11:49:37.367Z,585.00
2023-04-09T11:50:37.418Z,546.00
2023-04-09T11:51:37.447Z,583.00
2023-04-09T11:52:37.504Z,596.00
2023-04-09T11:53:37.564Z,577.00
2023-04-09T11:54:37.645Z,567.00
2023-04-09T11:55:37.717Z,611.00
2023-04-09T11:56:37.783Z,634.00
2023-04-09T11:57:37.837Z,598.00
2023-04-09T11:58:37.881Z,617.00
2023-04-09T11:59:37.912Z,618.00
2023-04-09T12:00:37.957Z,559.00
2023-04-09T12:01:38.079Z,523.00
2023-04-09T12:02:38.165Z,526.00
2023-04-09T12:03:38.270Z,542.00
2023-04-09T12:04:38.336Z,524.00
2023-04-09T12:05:39.852Z,537.00
2023-04-09T12:06:38.345Z,550.00
2023-04-09T12:07:38.663Z,580.00
2023-04-09T12:08:38.411Z,617.00
2023-04-09T12:09:38.457Z,544.00
2023-04-09T12:10:38.481Z,501.00
2023-04-09T12:11:38.525Z,487.00
2023-04-09T12:12:38.548Z,506.00
2023-04-09T12:13:38.581Z,526.00